sensor_id;sensor_type;location;lat;lon;timestamp;pressure;altitude;pressure_sealevel;temperature;humidity
78354;BME280;67629;46.040;18.232;2023-07-20T00:00:13;99134.47;;;19.07;89.37
78354;BME280;67629;46.040;18.232;2023-07-20T00:00:44;99141.97;;;19.07;89.34
78354;BME280;67629;46.040;18.232;2023-07-20T00:01:15;99135.59;;;19.06;89.06
78354;BME280;67629;46.040;18.232;2023-07-20T00:01:46;99135.09;;;19.04;90.04
78354;BME280;67629;46.040;18.232;2023-07-20T00:02:17;99144.03;;;19.01;90.80
78354;BME280;67629;46.040;18.232;2023-07-20T00:02:51;99135.91;;;19.05;90.05
78354;BME280;67629;46.040;18.232;2023-07-20T00:03:22;99139.06;;;19.12;89.00
78354;BME280;67629;46.040;18.232;2023-07-20T00:03:57;99137.31;;;19.16;87.21
78354;BME280;67629;46.040;18.232;2023-07-20T00:04:28;99140.59;;;19.18;88.57
78354;BME280;67629;46.040;18.232;2023-07-20T00:04:59;99132.78;;;19.20;87.78
78354;BME280;67629;46.040;18.232;2023-07-20T00:05:29;99147.56;;;19.15;88.60
78354;BME280;67629;46.040;18.232;2023-07-20T00:06:00;99143.97;;;19.15;88.35
78354;BME280;67629;46.040;18.232;2023-07-20T00:06:31;99146.47;;;19.16;88.65
78354;BME280;67629;46.040;18.232;2023-07-20T00:07:01;99138.16;;;19.16;88.30
78354;BME280;67629;46.040;18.232;2023-07-20T00:07:32;99134.06;;;19.14;88.71
78354;BME280;67629;46.040;18.232;2023-07-20T00:08:03;99140.38;;;19.14;88.23
78354;BME280;67629;46.040;18.232;2023-07-20T00:08:34;99135.19;;;19.13;88.33
78354;BME280;67629;46.040;18.232;2023-07-20T00:09:04;99132.09;;;19.14;87.98
78354;BME280;67629;46.040;18.232;2023-07-20T00:09:35;99131.78;;;19.16;87.89
78354;BME280;67629;46.040;18.232;2023-07-20T00:13:58;99134.69;;;19.11;88.70
78354;BME280;67629;46.040;18.232;2023-07-20T00:14:29;99135.19;;;19.13;88.21
78354;BME280;67629;46.040;18.232;2023-07-20T00:14:59;99121.00;;;19.14;87.65
78354;BME280;67629;46.040;18.232;2023-07-20T00:15:30;99125.22;;;19.12;88.74
78354;BME280;67629;46.040;18.232;2023-07-20T00:16:03;99130.97;;;19.15;87.49
78354;BME280;67629;46.040;18.232;2023-07-20T00:16:33;99122.97;;;19.14;87.86
78354;BME280;67629;46.040;18.232;2023-07-20T00:17:04;99116.28;;;19.15;87.79
78354;BME280;67629;46.040;18.232;2023-07-20T00:17:35;99117.31;;;19.19;86.97
78354;BME280;67629;46.040;18.232;2023-07-20T00:18:07;99113.41;;;19.20;86.99
78354;BME280;67629;46.040;18.232;2023-07-20T00:18:38;99118.94;;;19.20;87.04
78354;BME280;67629;46.040;18.232;2023-07-20T00:19:09;99118.63;;;19.21;85.89
78354;BME280;67629;46.040;18.232;2023-07-20T00:19:40;99117.19;;;19.24;86.24
78354;BME280;67629;46.040;18.232;2023-07-20T00:20:12;99114.13;;;19.25;86.02
78354;BME280;67629;46.040;18.232;2023-07-20T00:20:43;99112.06;;;19.31;83.76
78354;BME280;67629;46.040;18.232;2023-07-20T00:21:13;99118.59;;;19.35;83.78
78354;BME280;67629;46.040;18.232;2023-07-20T00:21:44;99123.31;;;19.34;84.51
78354;BME280;67629;46.040;18.232;2023-07-20T00:22:15;99127.72;;;19.35;84.12
78354;BME280;67629;46.040;18.232;2023-07-20T00:22:46;99124.66;;;19.37;83.96
78354;BME280;67629;46.040;18.232;2023-07-20T00:23:16;99126.28;;;19.38;84.39
78354;BME280;67629;46.040;18.232;2023-07-20T00:23:47;99121.25;;;19.40;83.32
78354;BME280;67629;46.040;18.232;2023-07-20T00:24:50;99120.72;;;19.38;83.93
78354;BME280;67629;46.040;18.232;2023-07-20T00:25:21;99113.28;;;19.39;84.69
78354;BME280;67629;46.040;18.232;2023-07-20T00:25:53;99112.75;;;19.37;84.71
78354;BME280;67629;46.040;18.232;2023-07-20T00:26:24;99113.03;;;19.35;85.02
78354;BME280;67629;46.040;18.232;2023-07-20T00:26:55;99107.22;;;19.37;84.83
78354;BME280;67629;46.040;18.232;2023-07-20T00:27:26;99104.63;;;19.40;83.11
78354;BME280;67629;46.040;18.232;2023-07-20T00:27:56;99110.06;;;19.45;82.59
78354;BME280;67629;46.040;18.232;2023-07-20T00:28:27;99106.47;;;19.45;82.85
78354;BME280;67629;46.040;18.232;2023-07-20T00:28:58;99100.94;;;19.45;82.86
78354;BME280;67629;46.040;18.232;2023-07-20T00:29:28;99099.50;;;19.47;82.38
78354;BME280;67629;46.040;18.232;2023-07-20T00:30:00;99097.84;;;19.46;83.44
78354;BME280;67629;46.040;18.232;2023-07-20T00:30:31;99094.16;;;19.51;81.02
78354;BME280;67629;46.040;18.232;2023-07-20T00:31:02;99094.84;;;19.56;80.79
78354;BME280;67629;46.040;18.232;2023-07-20T00:31:33;99095.81;;;19.60;80.77
78354;BME280;67629;46.040;18.232;2023-07-20T00:32:05;99098.28;;;19.62;80.30
78354;BME280;67629;46.040;18.232;2023-07-20T00:32:36;99095.19;;;19.63;80.59
78354;BME280;67629;46.040;18.232;2023-07-20T00:33:10;99095.19;;;19.63;80.89
78354;BME280;67629;46.040;18.232;2023-07-20T00:33:41;99098.59;;;19.60;81.82
78354;BME280;67629;46.040;18.232;2023-07-20T00:34:12;99103.63;;;19.58;81.85
78354;BME280;67629;46.040;18.232;2023-07-20T00:34:44;99098.72;;;19.55;81.27
78354;BME280;67629;46.040;18.232;2023-07-20T00:35:14;99101.84;;;19.54;81.70
78354;BME280;67629;46.040;18.232;2023-07-20T00:35:45;99101.50;;;19.55;81.70
78354;BME280;67629;46.040;18.232;2023-07-20T00:36:16;99099.88;;;19.54;81.71
78354;BME280;67629;46.040;18.232;2023-07-20T00:36:47;99092.88;;;19.57;81.46
78354;BME280;67629;46.040;18.232;2023-07-20T00:37:19;99092.56;;;19.58;81.98
78354;BME280;67629;46.040;18.232;2023-07-20T00:37:49;99092.25;;;19.60;81.20
78354;BME280;67629;46.040;18.232;2023-07-20T00:38:20;99091.09;;;19.61;80.99
78354;BME280;67629;46.040;18.232;2023-07-20T00:38:51;99089.16;;;19.61;81.84
78354;BME280;67629;46.040;18.232;2023-07-20T00:39:22;99089.16;;;19.61;81.95
78354;BME280;67629;46.040;18.232;2023-07-20T00:39:53;99081.34;;;19.63;80.48
78354;BME280;67629;46.040;18.232;2023-07-20T00:40:24;99091.31;;;19.64;80.59
78354;BME280;67629;46.040;18.232;2023-07-20T00:40:55;99076.63;;;19.64;80.52
78354;BME280;67629;46.040;18.232;2023-07-20T00:41:25;99081.34;;;19.63;81.23
78354;BME280;67629;46.040;18.232;2023-07-20T00:41:59;99087.22;;;19.62;81.24
78354;BME280;67629;46.040;18.232;2023-07-20T00:42:31;99083.00;;;19.64;80.51
78354;BME280;67629;46.040;18.232;2023-07-20T00:43:01;99089.03;;;19.66;80.96
78354;BME280;67629;46.040;18.232;2023-07-20T00:43:32;99089.34;;;19.65;81.15
78354;BME280;67629;46.040;18.232;2023-07-20T00:44:04;99094.25;;;19.68;80.80
78354;BME280;67629;46.040;18.232;2023-07-20T00:44:35;99090.97;;;19.66;81.02
78354;BME280;67629;46.040;18.232;2023-07-20T00:45:21;99102.06;;;19.66;81.31
78354;BME280;67629;46.040;18.232;2023-07-20T00:45:52;99100.09;;;19.66;81.47
78354;BME280;67629;46.040;18.232;2023-07-20T00:46:23;99105.34;;;19.68;80.53
78354;BME280;67629;46.040;18.232;2023-07-20T00:47:10;99101.41;;;19.69;80.71
78354;BME280;67629;46.040;18.232;2023-07-20T00:47:57;99084.50;;;19.70;79.35
78354;BME280;67629;46.040;18.232;2023-07-20T00:48:43;99084.50;;;19.70;79.87
78354;BME280;67629;46.040;18.232;2023-07-20T00:49:29;99093.63;;;19.71;80.22
78354;BME280;67629;46.040;18.232;2023-07-20T00:50:16;99095.88;;;19.69;80.94
78354;BME280;67629;46.040;18.232;2023-07-20T00:51:02;99087.75;;;19.72;81.24
78354;BME280;67629;46.040;18.232;2023-07-20T00:51:49;99082.22;;;19.72;80.06
78354;BME280;67629;46.040;18.232;2023-07-20T00:52:37;99087.47;;;19.74;79.32
78354;BME280;67629;46.040;18.232;2023-07-20T00:53:25;99082.22;;;19.72;79.58
78354;BME280;67629;46.040;18.232;2023-07-20T00:54:11;99081.09;;;19.73;80.32
78354;BME280;67629;46.040;18.232;2023-07-20T00:54:57;99071.94;;;19.73;80.35
78354;BME280;67629;46.040;18.232;2023-07-20T00:55:46;99082.59;;;19.79;79.46
78354;BME280;67629;46.040;18.232;2023-07-20T00:56:32;99081.44;;;19.80;79.72
78354;BME280;67629;46.040;18.232;2023-07-20T00:57:19;99079.63;;;19.76;81.56
78354;BME280;67629;46.040;18.232;2023-07-20T00:58:05;99081.28;;;19.77;80.17
78354;BME280;67629;46.040;18.232;2023-07-20T00:58:52;99086.81;;;19.77;79.69
78354;BME280;67629;46.040;18.232;2023-07-20T00:59:38;99079.81;;;19.79;79.00
78354;BME280;67629;46.040;18.232;2023-07-20T01:00:09;99077.53;;;19.81;78.19
78354;BME280;67629;46.040;18.232;2023-07-20T01:00:55;99065.81;;;19.84;79.76
78354;BME280;67629;46.040;18.232;2023-07-20T01:01:40;99085.56;;;19.83;78.74
78354;BME280;67629;46.040;18.232;2023-07-20T01:02:27;99083.56;;;19.83;80.06
78354;BME280;67629;46.040;18.232;2023-07-20T01:03:13;99073.66;;;19.82;79.22
78354;BME280;67629;46.040;18.232;2023-07-20T01:03:59;99075.44;;;19.87;78.72
78354;BME280;67629;46.040;18.232;2023-07-20T01:04:45;99070.53;;;19.84;79.51
78354;BME280;67629;46.040;18.232;2023-07-20T01:05:48;99081.97;;;19.82;78.67
78354;BME280;67629;46.040;18.232;2023-07-20T01:06:53;99078.03;;;19.83;79.18
78354;BME280;67629;46.040;18.232;2023-07-20T01:07:55;99086.88;;;19.85;79.16
78354;BME280;67629;46.040;18.232;2023-07-20T01:08:36;99078.84;;;19.84;79.29
78354;BME280;67629;46.040;18.232;2023-07-20T01:09:18;99079.19;;;19.82;80.44
78354;BME280;67629;46.040;18.232;2023-07-20T01:11:50;99084.09;;;19.85;79.43
78354;BME280;67629;46.040;18.232;2023-07-20T01:12:42;99086.88;;;19.85;78.86
78354;BME280;67629;46.040;18.232;2023-07-20T01:13:14;99090.44;;;19.86;79.61
78354;BME280;67629;46.040;18.232;2023-07-20T01:13:46;99095.19;;;19.85;79.52
78354;BME280;67629;46.040;18.232;2023-07-20T01:14:17;99093.34;;;19.81;79.63
78354;BME280;67629;46.040;18.232;2023-07-20T01:14:48;99090.91;;;19.79;79.62
78354;BME280;67629;46.040;18.232;2023-07-20T01:15:19;99093.69;;;19.79;80.35
78354;BME280;67629;46.040;18.232;2023-07-20T01:15:50;99095.81;;;19.82;79.58
78354;BME280;67629;46.040;18.232;2023-07-20T01:16:24;99090.78;;;19.84;79.55
78354;BME280;67629;46.040;18.232;2023-07-20T01:16:54;99089.91;;;19.75;80.22
78354;BME280;67629;46.040;18.232;2023-07-20T01:17:25;99095.78;;;19.74;80.59
78354;BME280;67629;46.040;18.232;2023-07-20T01:17:57;99106.66;;;19.70;80.77
78354;BME280;67629;46.040;18.232;2023-07-20T01:18:28;99102.25;;;19.69;80.67
78354;BME280;67629;46.040;18.232;2023-07-20T01:18:59;99111.09;;;19.71;81.05
78354;BME280;67629;46.040;18.232;2023-07-20T01:19:29;99111.38;;;19.70;80.88
78354;BME280;67629;46.040;18.232;2023-07-20T01:20:00;99113.97;;;19.66;81.12
78354;BME280;67629;46.040;18.232;2023-07-20T01:20:33;99118.38;;;19.67;80.83
78354;BME280;67629;46.040;18.232;2023-07-20T01:21:09;99120.81;;;19.69;80.92
78354;BME280;67629;46.040;18.232;2023-07-20T01:26:38;99112.34;;;19.65;82.38
78354;BME280;67629;46.040;18.232;2023-07-20T01:28:35;99125.03;;;19.66;81.83
78354;BME280;67629;46.040;18.232;2023-07-20T01:30:24;99123.44;;;19.65;82.21
78354;BME280;67629;46.040;18.232;2023-07-20T01:31:39;99126.81;;;19.62;82.25
78354;BME280;67629;46.040;18.232;2023-07-20T01:32:12;99134.31;;;19.62;82.09
78354;BME280;67629;46.040;18.232;2023-07-20T01:32:44;99132.66;;;19.61;82.18
78354;BME280;67629;46.040;18.232;2023-07-20T01:33:19;99132.66;;;19.61;82.63
78354;BME280;67629;46.040;18.232;2023-07-20T01:33:53;99125.19;;;19.61;82.60
78354;BME280;67629;46.040;18.232;2023-07-20T01:34:26;99123.53;;;19.60;83.06
78354;BME280;67629;46.040;18.232;2023-07-20T01:34:58;99128.91;;;19.57;82.75
78354;BME280;67629;46.040;18.232;2023-07-20T01:35:31;99125.81;;;19.58;82.30
78354;BME280;67629;46.040;18.232;2023-07-20T01:36:03;99134.13;;;19.58;83.16
78354;BME280;67629;46.040;18.232;2023-07-20T01:36:36;99130.03;;;19.56;82.92
78354;BME280;67629;46.040;18.232;2023-07-20T01:37:08;99126.13;;;19.57;83.52
78354;BME280;67629;46.040;18.232;2023-07-20T01:37:43;99134.13;;;19.58;83.07
78354;BME280;67629;46.040;18.232;2023-07-20T01:38:17;99133.81;;;19.60;82.73
78354;BME280;67629;46.040;18.232;2023-07-20T01:38:58;99132.66;;;19.61;83.01
78354;BME280;67629;46.040;18.232;2023-07-20T01:39:30;99133.19;;;19.63;82.88
78354;BME280;67629;46.040;18.232;2023-07-20T01:40:02;99136.06;;;19.58;83.57
78354;BME280;67629;46.040;18.232;2023-07-20T01:40:33;99135.78;;;19.59;83.52
78354;BME280;67629;46.040;18.232;2023-07-20T01:41:05;99130.03;;;19.56;83.50
78354;BME280;67629;46.040;18.232;2023-07-20T01:41:36;99140.78;;;19.57;83.42
78354;BME280;67629;46.040;18.232;2023-07-20T01:42:07;99138.00;;;19.57;83.25
78354;BME280;67629;46.040;18.232;2023-07-20T01:42:38;99140.28;;;19.55;83.31
78354;BME280;67629;46.040;18.232;2023-07-20T01:43:12;99129.22;;;19.55;83.49
78354;BME280;67629;46.040;18.232;2023-07-20T01:43:43;99133.63;;;19.56;83.54
78354;BME280;67629;46.040;18.232;2023-07-20T01:44:14;99136.88;;;19.58;83.59
78354;BME280;67629;46.040;18.232;2023-07-20T01:44:44;99132.81;;;19.56;83.65
78354;BME280;67629;46.040;18.232;2023-07-20T01:45:15;99147.97;;;19.58;83.88
78354;BME280;67629;46.040;18.232;2023-07-20T01:45:46;99149.63;;;19.59;84.37
78354;BME280;67629;46.040;18.232;2023-07-20T01:46:17;99137.72;;;19.59;83.95
78354;BME280;67629;46.040;18.232;2023-07-20T01:46:47;99146.53;;;19.61;82.89
78354;BME280;67629;46.040;18.232;2023-07-20T01:47:18;99145.59;;;19.65;83.29
78354;BME280;67629;46.040;18.232;2023-07-20T01:47:48;99143.94;;;19.64;83.58
78354;BME280;67629;46.040;18.232;2023-07-20T01:48:19;99149.50;;;19.64;83.12
78354;BME280;67629;46.040;18.232;2023-07-20T01:48:50;99149.16;;;19.66;83.70
78354;BME280;67629;46.040;18.232;2023-07-20T01:49:21;99158.63;;;19.65;83.68
78354;BME280;67629;46.040;18.232;2023-07-20T01:49:52;99156.97;;;19.64;83.34
78354;BME280;67629;46.040;18.232;2023-07-20T01:50:23;99155.03;;;19.64;83.64
78354;BME280;67629;46.040;18.232;2023-07-20T01:50:53;99169.09;;;19.68;84.07
78354;BME280;67629;46.040;18.232;2023-07-20T01:51:24;99158.28;;;19.66;83.52
78354;BME280;67629;46.040;18.232;2023-07-20T01:51:55;99170.53;;;19.65;83.34
78354;BME280;67629;46.040;18.232;2023-07-20T01:52:25;99171.47;;;19.61;83.57
78354;BME280;67629;46.040;18.232;2023-07-20T01:52:56;99181.09;;;19.63;83.83
78354;BME280;67629;46.040;18.232;2023-07-20T01:53:27;99172.47;;;19.65;83.83
78354;BME280;67629;46.040;18.232;2023-07-20T01:53:57;99178.03;;;19.65;84.09
78354;BME280;67629;46.040;18.232;2023-07-20T01:54:28;99176.38;;;19.64;84.01
78354;BME280;67629;46.040;18.232;2023-07-20T01:54:59;99184.31;;;19.57;84.96
78354;BME280;67629;46.040;18.232;2023-07-20T01:55:30;99187.38;;;19.55;84.33
78354;BME280;67629;46.040;18.232;2023-07-20T01:56:00;99187.09;;;19.57;84.40
78354;BME280;67629;46.040;18.232;2023-07-20T01:56:31;99187.38;;;19.55;85.06
78354;BME280;67629;46.040;18.232;2023-07-20T01:57:02;99201.88;;;19.52;84.55
78354;BME280;67629;46.040;18.232;2023-07-20T01:57:33;99200.75;;;19.53;85.13
78354;BME280;67629;46.040;18.232;2023-07-20T01:58:04;99211.19;;;19.56;84.93
78354;BME280;67629;46.040;18.232;2023-07-20T01:58:42;99209.06;;;19.53;85.69
78354;BME280;67629;46.040;18.232;2023-07-20T01:59:13;99208.56;;;19.51;85.58
78354;BME280;67629;46.040;18.232;2023-07-20T01:59:43;99221.25;;;19.52;86.38
78354;BME280;67629;46.040;18.232;2023-07-20T02:00:14;99223.41;;;19.55;85.63
78354;BME280;67629;46.040;18.232;2023-07-20T02:00:45;99220.63;;;19.55;85.61
78354;BME280;67629;46.040;18.232;2023-07-20T02:01:16;99220.63;;;19.55;85.82
78354;BME280;67629;46.040;18.232;2023-07-20T02:01:46;99215.22;;;19.50;86.22
78354;BME280;67629;46.040;18.232;2023-07-20T02:02:26;99228.44;;;19.53;86.04
78354;BME280;67629;46.040;18.232;2023-07-20T02:02:57;99230.19;;;19.49;86.83
78354;BME280;67629;46.040;18.232;2023-07-20T02:03:28;99223.44;;;19.42;87.23
78354;BME280;67629;46.040;18.232;2023-07-20T02:03:59;99231.03;;;19.36;88.25
78354;BME280;67629;46.040;18.232;2023-07-20T02:04:29;99228.75;;;19.38;88.07
78354;BME280;67629;46.040;18.232;2023-07-20T02:05:00;99224.91;;;19.39;87.94
78354;BME280;67629;46.040;18.232;2023-07-20T02:05:31;99230.94;;;19.41;87.62
78354;BME280;67629;46.040;18.232;2023-07-20T02:06:17;99232.38;;;19.39;88.15
78354;BME280;67629;46.040;18.232;2023-07-20T02:07:03;99241.78;;;19.38;88.24
78354;BME280;67629;46.040;18.232;2023-07-20T02:07:34;99235.66;;;19.27;89.14
78354;BME280;67629;46.040;18.232;2023-07-20T02:08:20;99229.19;;;19.18;89.90
78354;BME280;67629;46.040;18.232;2023-07-20T02:08:50;99234.53;;;19.14;90.69
78354;BME280;67629;46.040;18.232;2023-07-20T02:09:21;99232.19;;;19.08;91.06
78354;BME280;67629;46.040;18.232;2023-07-20T02:09:52;99236.09;;;19.07;91.88
78354;BME280;67629;46.040;18.232;2023-07-20T02:10:38;99236.19;;;19.15;90.88
78354;BME280;67629;46.040;18.232;2023-07-20T02:11:27;99237.63;;;19.13;92.23
78354;BME280;67629;46.040;18.232;2023-07-20T02:12:13;99246.44;;;19.15;91.53
78354;BME280;67629;46.040;18.232;2023-07-20T02:12:59;99243.28;;;19.08;93.07
78354;BME280;67629;46.040;18.232;2023-07-20T02:13:45;99237.72;;;19.08;92.44
78354;BME280;67629;46.040;18.232;2023-07-20T02:14:31;99242.13;;;19.09;92.81
78354;BME280;67629;46.040;18.232;2023-07-20T02:15:02;99240.59;;;19.03;92.90
78354;BME280;67629;46.040;18.232;2023-07-20T02:15:33;99245.41;;;18.97;93.30
78354;BME280;67629;46.040;18.232;2023-07-20T02:16:04;99239.38;;;18.95;94.39
78354;BME280;67629;46.040;18.232;2023-07-20T02:16:35;99244.09;;;18.95;94.57
78354;BME280;67629;46.040;18.232;2023-07-20T02:17:06;99245.41;;;18.97;94.41
78354;BME280;67629;46.040;18.232;2023-07-20T02:17:37;99246.56;;;18.96;94.26
78354;BME280;67629;46.040;18.232;2023-07-20T02:18:08;99254.03;;;18.96;94.54
78354;BME280;67629;46.040;18.232;2023-07-20T02:18:39;99253.53;;;18.94;94.82
78354;BME280;67629;46.040;18.232;2023-07-20T02:19:25;99249.72;;;18.90;95.00
78354;BME280;67629;46.040;18.232;2023-07-20T02:20:14;99247.56;;;18.87;95.75
78354;BME280;67629;46.040;18.232;2023-07-20T02:20:59;99245.31;;;18.75;96.60
78354;BME280;67629;46.040;18.232;2023-07-20T02:21:31;99249.19;;;18.74;96.70
78354;BME280;67629;46.040;18.232;2023-07-20T02:22:04;99242.88;;;18.73;96.68
78354;BME280;67629;46.040;18.232;2023-07-20T02:22:37;99243.97;;;18.72;97.38
78354;BME280;67629;46.040;18.232;2023-07-20T02:23:23;99251.66;;;18.75;96.93
78354;BME280;67629;46.040;18.232;2023-07-20T02:23:54;99253.09;;;18.73;97.46
78354;BME280;67629;46.040;18.232;2023-07-20T02:24:39;99251.56;;;18.67;97.62
78354;BME280;67629;46.040;18.232;2023-07-20T02:25:25;99246.63;;;18.64;98.74
78354;BME280;67629;46.040;18.232;2023-07-20T02:26:11;99258.53;;;18.64;98.54
78354;BME280;67629;46.040;18.232;2023-07-20T02:26:57;99254.00;;;18.55;99.33
78354;BME280;67629;46.040;18.232;2023-07-20T02:27:43;99246.13;;;18.62;98.90
78354;BME280;67629;46.040;18.232;2023-07-20T02:28:29;99254.44;;;18.62;99.28
78354;BME280;67629;46.040;18.232;2023-07-20T02:29:00;99252.38;;;18.54;99.22
78354;BME280;67629;46.040;18.232;2023-07-20T02:29:46;99250.84;;;18.61;99.41
78354;BME280;67629;46.040;18.232;2023-07-20T02:30:31;99259.66;;;18.63;99.48
78354;BME280;67629;46.040;18.232;2023-07-20T02:31:17;99252.78;;;18.61;99.56
78354;BME280;67629;46.040;18.232;2023-07-20T02:32:04;99256.06;;;18.63;99.29
78354;BME280;67629;46.040;18.232;2023-07-20T02:32:50;99255.88;;;18.59;99.62
78354;BME280;67629;46.040;18.232;2023-07-20T02:33:21;99253.28;;;18.49;100.00
78354;BME280;67629;46.040;18.232;2023-07-20T02:34:07;99241.66;;;18.47;100.00
78354;BME280;67629;46.040;18.232;2023-07-20T02:34:53;99247.91;;;18.39;100.00
78354;BME280;67629;46.040;18.232;2023-07-20T02:35:24;99248.41;;;18.41;100.00
78354;BME280;67629;46.040;18.232;2023-07-20T02:36:10;99250.34;;;18.41;100.00
78354;BME280;67629;46.040;18.232;2023-07-20T02:36:55;99235.91;;;18.44;100.00
78354;BME280;67629;46.040;18.232;2023-07-20T02:37:44;99243.31;;;18.48;100.00
78354;BME280;67629;46.040;18.232;2023-07-20T02:38:15;99242.22;;;18.49;100.00
78354;BME280;67629;46.040;18.232;2023-07-20T02:38:49;99236.97;;;18.48;100.00
78354;BME280;67629;46.040;18.232;2023-07-20T02:39:20;99235.59;;;18.45;100.00
78354;BME280;67629;46.040;18.232;2023-07-20T02:40:07;99237.25;;;18.46;100.00
78354;BME280;67629;46.040;18.232;2023-07-20T02:40:54;99231.44;;;18.48;100.00
78354;BME280;67629;46.040;18.232;2023-07-20T02:41:40;99233.91;;;18.49;100.00
78354;BME280;67629;46.040;18.232;2023-07-20T02:42:26;99224.78;;;18.49;100.00
78354;BME280;67629;46.040;18.232;2023-07-20T02:43:13;99226.28;;;18.41;100.00
78354;BME280;67629;46.040;18.232;2023-07-20T02:43:59;99228.94;;;18.46;100.00
78354;BME280;67629;46.040;18.232;2023-07-20T02:44:45;99228.88;;;18.51;100.00
78354;BME280;67629;46.040;18.232;2023-07-20T02:45:31;99222.25;;;18.52;100.00
78354;BME280;67629;46.040;18.232;2023-07-20T02:46:17;99216.19;;;18.50;100.00
78354;BME280;67629;46.040;18.232;2023-07-20T02:47:04;99224.50;;;18.50;100.00
78354;BME280;67629;46.040;18.232;2023-07-20T02:47:49;99215.28;;;18.55;100.00
78354;BME280;67629;46.040;18.232;2023-07-20T02:48:36;99220.50;;;18.56;100.00
78354;BME280;67629;46.040;18.232;2023-07-20T02:49:21;99220.09;;;18.49;100.00
78354;BME280;67629;46.040;18.232;2023-07-20T02:50:08;99218.00;;;18.41;100.00
78354;BME280;67629;46.040;18.232;2023-07-20T02:50:39;99221.78;;;18.45;100.00
78354;BME280;67629;46.040;18.232;2023-07-20T02:51:10;99224.03;;;18.43;100.00
78354;BME280;67629;46.040;18.232;2023-07-20T02:51:41;99221.03;;;18.40;100.00
78354;BME280;67629;46.040;18.232;2023-07-20T02:52:12;99221.25;;;18.43;100.00
78354;BME280;67629;46.040;18.232;2023-07-20T02:52:43;99218.00;;;18.41;100.00
78354;BME280;67629;46.040;18.232;2023-07-20T02:53:14;99212.16;;;18.43;100.00
78354;BME280;67629;46.040;18.232;2023-07-20T02:53:44;99222.19;;;18.39;100.00
78354;BME280;67629;46.040;18.232;2023-07-20T02:54:15;99219.09;;;18.40;100.00
78354;BME280;67629;46.040;18.232;2023-07-20T02:54:46;99222.09;;;18.44;100.00
78354;BME280;67629;46.040;18.232;2023-07-20T02:55:16;99220.16;;;18.44;100.00
78354;BME280;67629;46.040;18.232;2023-07-20T02:56:02;99223.97;;;18.48;100.00
78354;BME280;67629;46.040;18.232;2023-07-20T02:56:49;99229.78;;;18.47;100.00
78354;BME280;67629;46.040;18.232;2023-07-20T02:57:20;99234.19;;;18.48;100.00
78354;BME280;67629;46.040;18.232;2023-07-20T02:57:51;99233.38;;;18.47;100.00
78354;BME280;67629;46.040;18.232;2023-07-20T02:58:22;99232.53;;;18.47;100.00
78354;BME280;67629;46.040;18.232;2023-07-20T02:59:48;99231.03;;;18.54;100.00
78354;BME280;67629;46.040;18.232;2023-07-20T03:00:18;99223.06;;;18.53;100.00
78354;BME280;67629;46.040;18.232;2023-07-20T03:00:50;99215.66;;;18.48;100.00
78354;BME280;67629;46.040;18.232;2023-07-20T03:01:21;99221.19;;;18.48;100.00
78354;BME280;67629;46.040;18.232;2023-07-20T03:01:52;99217.53;;;18.53;100.00
78354;BME280;67629;46.040;18.232;2023-07-20T03:02:25;99224.72;;;18.54;100.00
78354;BME280;67629;46.040;18.232;2023-07-20T03:02:56;99222.56;;;18.51;100.00
78354;BME280;67629;46.040;18.232;2023-07-20T03:03:27;99221.94;;;18.54;100.00
78354;BME280;67629;46.040;18.232;2023-07-20T03:03:58;99220.59;;;18.51;100.00
78354;BME280;67629;46.040;18.232;2023-07-20T03:04:29;99219.53;;;18.47;100.00
78354;BME280;67629;46.040;18.232;2023-07-20T03:04:59;99227.00;;;18.47;100.00
78354;BME280;67629;46.040;18.232;2023-07-20T03:05:31;99222.31;;;18.47;100.00
78354;BME280;67629;46.040;18.232;2023-07-20T03:06:01;99224.25;;;18.47;100.00
78354;BME280;67629;46.040;18.232;2023-07-20T03:06:32;99223.41;;;18.46;100.00
78354;BME280;67629;46.040;18.232;2023-07-20T03:07:06;99219.78;;;18.51;100.00
78354;BME280;67629;46.040;18.232;2023-07-20T03:07:40;99225.91;;;18.48;100.00
78354;BME280;67629;46.040;18.232;2023-07-20T03:08:10;99221.19;;;18.48;100.00
78354;BME280;67629;46.040;18.232;2023-07-20T03:08:42;99229.78;;;18.47;100.00
78354;BME280;67629;46.040;18.232;2023-07-20T03:09:15;99218.50;;;18.43;100.00
78354;BME280;67629;46.040;18.232;2023-07-20T03:09:46;99223.53;;;18.41;100.00
78354;BME280;67629;46.040;18.232;2023-07-20T03:10:17;99224.53;;;18.45;100.00
78354;BME280;67629;46.040;18.232;2023-07-20T03:10:48;99218.97;;;18.50;100.00
78354;BME280;67629;46.040;18.232;2023-07-20T03:11:20;99220.75;;;18.41;100.00
78354;BME280;67629;46.040;18.232;2023-07-20T03:11:51;99221.59;;;18.42;100.00
78354;BME280;67629;46.040;18.232;2023-07-20T03:12:22;99227.94;;;18.42;100.00
78354;BME280;67629;46.040;18.232;2023-07-20T03:13:00;99223.53;;;18.41;100.00
78354;BME280;67629;46.040;18.232;2023-07-20T03:13:30;99219.66;;;18.42;100.00
78354;BME280;67629;46.040;18.232;2023-07-20T03:14:01;99219.31;;;18.44;100.00
78354;BME280;67629;46.040;18.232;2023-07-20T03:14:32;99219.00;;;18.45;100.00
78354;BME280;67629;46.040;18.232;2023-07-20T03:15:03;99218.44;;;18.48;100.00
78354;BME280;67629;46.040;18.232;2023-07-20T03:15:34;99223.34;;;18.51;100.00
78354;BME280;67629;46.040;18.232;2023-07-20T03:16:05;99217.81;;;18.51;100.00
78354;BME280;67629;46.040;18.232;2023-07-20T03:16:42;99213.66;;;18.54;100.00
78354;BME280;67629;46.040;18.232;2023-07-20T03:17:12;99214.66;;;18.58;100.00
78354;BME280;67629;46.040;18.232;2023-07-20T03:17:44;99217.63;;;18.61;100.00
78354;BME280;67629;46.040;18.232;2023-07-20T03:18:15;99209.56;;;18.65;100.00
78354;BME280;67629;46.040;18.232;2023-07-20T03:18:46;99213.53;;;18.59;100.00